Time;durP1;ratioP1;P1;durP2;ratioP2;P2;SDS_P1;SDS_P2;PMS_P1;PMS_P2;Temp;Humidity;BMP_temperature;BMP_pressure;BME280_temperature;BME280_humidity;BME280_pressure;Samples;Min_cycle;Max_cycle;Signal;HPM_P1;HPM_P2
2023/03/20 00:01:25;;;;;;;1.58;0.90;;;;;;;;;;5040484;28;20564;-82
2023/03/20 00:03:51;;;;;;;2.03;1.38;;;;;;;;;;5040730;28;20411;-83
2023/03/20 00:06:22;;;;;;;0.88;0.77;;;;;;;;;;5041302;28;20059;-82
2023/03/20 00:08:49;;;;;;;1.30;0.98;;;;;;;;;;5044505;28;20081;-82
2023/03/20 00:11:25;;;;;;;2.17;1.65;;;;;;;;;;5040853;28;20108;-82
2023/03/20 00:13:51;;;;;;;1.63;0.90;;;;;;;;;;5035019;28;20401;-81
2023/03/20 00:16:17;;;;;;;0.88;0.60;;;;;;;;;;5049848;28;20028;-82
2023/03/20 00:18:42;;;;;;;0.30;0.30;;;;;;;;;;5037714;28;21316;-82
2023/03/20 00:21:18;;;;;;;2.55;1.20;;;;;;;;;;5041692;28;20108;-83
2023/03/20 00:23:43;;;;;;;1.98;0.90;;;;;;;;;;5041169;28;20017;-85
2023/03/20 00:26:19;;;;;;;1.05;0.95;;;;;;;;;;5040360;28;20044;-83
2023/03/20 00:28:49;;;;;;;1.95;1.23;;;;;;;;;;5047776;28;20028;-83
2023/03/20 00:31:30;;;;;;;1.73;1.23;;;;;;;;;;5040177;28;20040;-82
2023/03/20 00:33:59;;;;;;;2.88;1.35;;;;;;;;;;5045606;28;20033;-84
2023/03/20 00:36:25;;;;;;;1.05;0.80;;;;;;;;;;5040316;28;20079;-84
2023/03/20 00:38:51;;;;;;;1.67;1.00;;;;;;;;;;5037458;28;20039;-84
2023/03/20 00:41:38;;;;;;;1.65;1.52;;;;;;;;;;5038940;28;20029;-85
2023/03/20 00:44:30;;;;;;;2.20;1.02;;;;;;;;;;5045945;28;20052;-84
2023/03/20 00:46:58;;;;;;;1.17;0.82;;;;;;;;;;5036717;28;20028;-81
2023/03/20 00:49:27;;;;;;;1.08;0.70;;;;;;;;;;5044024;28;20120;-81
2023/03/20 00:51:53;;;;;;;1.45;1.08;;;;;;;;;;5042953;28;20025;-82
2023/03/20 00:54:19;;;;;;;2.22;1.17;;;;;;;;;;5044889;28;20028;-81
2023/03/20 00:57:13;;;;;;;3.17;1.90;;;;;;;;;;5048298;28;20420;-81
2023/03/20 01:00:12;;;;;;;0.70;0.70;;;;;;;;;;5041511;28;20025;-81
2023/03/20 01:02:37;;;;;;;2.63;0.93;;;;;;;;;;5037029;28;20132;-82
2023/03/20 01:05:04;;;;;;;1.02;0.93;;;;;;;;;;5040859;28;20116;-83
2023/03/20 01:07:30;;;;;;;1.95;0.65;;;;;;;;;;5042730;28;20029;-83
2023/03/20 01:09:55;;;;;;;1.98;1.00;;;;;;;;;;5045135;28;20644;-82
2023/03/20 01:12:21;;;;;;;2.35;0.93;;;;;;;;;;5041856;28;20025;-81
2023/03/20 01:14:52;;;;;;;0.90;0.77;;;;;;;;;;5046253;28;20053;-82
2023/03/20 01:17:19;;;;;;;0.82;0.82;;;;;;;;;;5039161;28;20028;-82
2023/03/20 01:19:45;;;;;;;2.80;1.88;;;;;;;;;;5048877;28;20462;-83
2023/03/20 01:22:12;;;;;;;1.30;1.20;;;;;;;;;;5050295;28;20029;-84
2023/03/20 01:24:39;;;;;;;1.23;1.13;;;;;;;;;;5041060;28;20051;-83
2023/03/20 01:27:10;;;;;;;3.72;1.52;;;;;;;;;;5045506;28;20025;-83
2023/03/20 01:29:36;;;;;;;15.43;1.85;;;;;;;;;;5043692;28;20026;-83
2023/03/20 01:32:01;;;;;;;0.95;0.85;;;;;;;;;;5042402;28;20033;-84
2023/03/20 01:34:26;;;;;;;1.33;1.02;;;;;;;;;;5042501;28;20473;-84
2023/03/20 01:36:55;;;;;;;2.75;1.52;;;;;;;;;;5042174;28;20025;-83
2023/03/20 01:39:23;;;;;;;0.77;0.77;;;;;;;;;;5040320;28;20033;-83
2023/03/20 01:41:50;;;;;;;1.27;0.98;;;;;;;;;;5055468;28;20538;-83
2023/03/20 01:44:26;;;;;;;2.60;0.93;;;;;;;;;;5041810;28;20057;-83
2023/03/20 01:46:52;;;;;;;1.85;1.30;;;;;;;;;;5047943;28;20034;-84
2023/03/20 01:49:18;;;;;;;2.63;1.13;;;;;;;;;;5039075;28;20059;-83
2023/03/20 01:51:43;;;;;;;0.68;0.68;;;;;;;;;;5043240;28;20029;-82
2023/03/20 01:54:16;;;;;;;2.00;1.13;;;;;;;;;;5045036;28;20108;-83
2023/03/20 01:57:05;;;;;;;2.47;1.42;;;;;;;;;;5043911;28;20108;-83
2023/03/20 01:59:37;;;;;;;4.30;1.88;;;;;;;;;;5039288;28;20029;-82
2023/03/20 02:02:05;;;;;;;1.05;0.98;;;;;;;;;;5048450;28;20501;-84
2023/03/20 02:04:37;;;;;;;1.85;1.25;;;;;;;;;;5057910;28;20025;-84
2023/03/20 02:07:05;;;;;;;0.80;0.77;;;;;;;;;;5039404;28;20028;-83
2023/03/20 02:09:30;;;;;;;1.33;1.05;;;;;;;;;;5046944;28;20158;-84
2023/03/20 02:11:57;;;;;;;1.73;1.63;;;;;;;;;;5044327;28;20122;-83
2023/03/20 02:14:23;;;;;;;4.88;1.45;;;;;;;;;;5043532;28;20048;-83
2023/03/20 02:16:48;;;;;;;1.42;1.23;;;;;;;;;;5059259;28;20033;-83
2023/03/20 02:19:24;;;;;;;1.80;1.17;;;;;;;;;;5047655;28;20033;-83
2023/03/20 02:22:04;;;;;;;2.20;1.25;;;;;;;;;;5046472;28;20036;-83
2023/03/20 02:25:04;;;;;;;1.58;1.00;;;;;;;;;;5037700;28;20044;-83
2023/03/20 02:27:56;;;;;;;1.40;1.05;;;;;;;;;;5045824;28;20059;-83
2023/03/20 02:31:17;;;;;;;1.13;0.98;;;;;;;;;;5040842;28;20101;-84
2023/03/20 02:34:37;;;;;;;1.48;1.08;;;;;;;;;;5022603;28;20057;-83
2023/03/20 02:37:33;;;;;;;1.55;0.88;;;;;;;;;;5022479;28;20033;-83
2023/03/20 02:40:18;;;;;;;3.55;1.50;;;;;;;;;;5020078;28;20037;-84
2023/03/20 02:42:49;;;;;;;1.92;1.10;;;;;;;;;;5038466;28;20096;-82
2023/03/20 02:45:20;;;;;;;3.58;1.48;;;;;;;;;;5045541;28;20059;-83
2023/03/20 02:47:53;;;;;;;1.42;1.13;;;;;;;;;;5044265;28;20051;-83
2023/03/20 02:50:24;;;;;;;1.23;1.13;;;;;;;;;;5045621;28;20413;-83
2023/03/20 02:53:02;;;;;;;1.08;1.05;;;;;;;;;;5045199;28;20056;-83
2023/03/20 02:56:02;;;;;;;2.72;1.30;;;;;;;;;;5038290;28;20013;-83
2023/03/20 02:58:31;;;;;;;;;;;;;;;;;;5048482;28;20064;-83
2023/03/20 03:01:08;;;;;;;1.80;1.30;;;;;;;;;;5044796;28;20383;-82
2023/03/20 03:03:50;;;;;;;1.55;1.10;;;;;;;;;;5042094;28;20059;-83
2023/03/20 03:06:31;;;;;;;1.27;1.17;;;;;;;;;;5042438;28;20050;-82
2023/03/20 03:09:12;;;;;;;2.20;1.27;;;;;;;;;;5056605;28;20029;-82
2023/03/20 03:11:42;;;;;;;5.95;1.35;;;;;;;;;;5040791;28;20111;-83
2023/03/20 03:14:15;;;;;;;0.90;0.68;;;;;;;;;;5042679;28;20032;-82
2023/03/20 03:16:42;;;;;;;1.02;0.70;;;;;;;;;;5039954;28;20209;-82
2023/03/20 03:19:21;;;;;;;1.10;0.73;;;;;;;;;;5036342;28;20041;-82
2023/03/20 03:21:47;;;;;;;1.63;0.98;;;;;;;;;;5042633;28;20082;-82
2023/03/20 03:24:31;;;;;;;2.03;1.02;;;;;;;;;;5042574;28;20029;-82
2023/03/20 03:27:00;;;;;;;3.78;1.27;;;;;;;;;;5040049;28;20017;-82
2023/03/20 03:29:30;;;;;;;4.00;0.82;;;;;;;;;;5058344;28;20115;-83
2023/03/20 03:31:56;;;;;;;1.02;0.93;;;;;;;;;;5042015;28;20040;-82
2023/03/20 03:34:23;;;;;;;0.85;0.80;;;;;;;;;;5041441;28;20454;-83
2023/03/20 03:36:54;;;;;;;1.23;1.13;;;;;;;;;;5045922;28;20363;-84
2023/03/20 03:39:28;;;;;;;1.17;0.70;;;;;;;;;;5040701;28;20469;-83
2023/03/20 03:42:08;;;;;;;1.58;0.73;;;;;;;;;;5043466;28;20097;-85
2023/03/20 03:44:45;;;;;;;1.05;0.75;;;;;;;;;;5044185;28;20140;-85
2023/03/20 03:47:21;;;;;;;2.22;1.83;;;;;;;;;;5040763;28;20025;-82
2023/03/20 03:49:56;;;;;;;1.05;0.63;;;;;;;;;;5045959;28;20039;-83
2023/03/20 03:52:25;;;;;;;1.33;0.70;;;;;;;;;;5039700;28;20017;-83
2023/03/20 03:55:01;;;;;;;1.10;1.00;;;;;;;;;;5042504;28;20456;-82
2023/03/20 03:57:31;;;;;;;9.55;0.90;;;;;;;;;;5038233;28;20097;-82
2023/03/20 03:59:59;;;;;;;0.77;0.70;;;;;;;;;;5036492;28;20057;-81
2023/03/20 04:02:25;;;;;;;1.92;0.95;;;;;;;;;;5043396;28;20049;-82
2023/03/20 04:04:53;;;;;;;1.88;0.95;;;;;;;;;;5040205;28;20112;-81
2023/03/20 04:07:20;;;;;;;0.40;0.40;;;;;;;;;;5037873;28;20032;-81
2023/03/20 04:09:46;;;;;;;0.77;0.63;;;;;;;;;;5041750;28;20025;-82
2023/03/20 04:12:39;;;;;;;3.45;1.15;;;;;;;;;;5042201;28;20033;-81
2023/03/20 04:15:05;;;;;;;1.80;1.02;;;;;;;;;;5056397;28;20048;-83
2023/03/20 04:17:30;;;;;;;1.42;1.08;;;;;;;;;;5043335;28;20033;-82
2023/03/20 04:19:56;;;;;;;1.90;1.55;;;;;;;;;;5044900;28;20035;-83
2023/03/20 04:22:22;;;;;;;0.85;0.68;;;;;;;;;;5038577;28;20032;-83
2023/03/20 04:24:47;;;;;;;10.80;1.05;;;;;;;;;;5040020;28;20041;-83
2023/03/20 04:27:12;;;;;;;0.70;0.60;;;;;;;;;;5042640;28;20032;-83
2023/03/20 04:29:38;;;;;;;0.90;0.70;;;;;;;;;;5042206;28;20484;-82
2023/03/20 04:32:03;;;;;;;2.05;1.35;;;;;;;;;;5041762;28;20051;-82
2023/03/20 04:34:29;;;;;;;2.88;1.17;;;;;;;;;;5047611;28;20074;-83
2023/03/20 04:36:55;;;;;;;1.33;1.02;;;;;;;;;;5041842;28;20491;-83
2023/03/20 04:39:21;;;;;;;0.75;0.65;;;;;;;;;;5041499;28;20087;-83
2023/03/20 04:41:46;;;;;;;1.55;0.82;;;;;;;;;;5035303;28;20053;-82
2023/03/20 04:44:12;;;;;;;2.08;0.98;;;;;;;;;;5037358;28;20421;-80
2023/03/20 04:46:37;;;;;;;1.23;0.80;;;;;;;;;;5043452;28;20021;-82
2023/03/20 04:49:03;;;;;;;0.68;0.65;;;;;;;;;;5044696;28;20040;-81
2023/03/20 04:51:28;;;;;;;1.35;1.00;;;;;;;;;;5038647;28;20136;-82
2023/03/20 04:53:54;;;;;;;2.08;1.45;;;;;;;;;;5041483;28;20123;-81
2023/03/20 04:56:19;;;;;;;3.25;1.05;;;;;;;;;;5043339;28;20481;-81
2023/03/20 04:58:45;;;;;;;2.22;1.35;;;;;;;;;;5037004;28;20029;-83
2023/03/20 05:01:10;;;;;;;2.90;2.08;;;;;;;;;;5035416;28;20037;-81
2023/03/20 05:03:35;;;;;;;4.53;2.05;;;;;;;;;;5038847;28;20057;-82
2023/03/20 05:06:01;;;;;;;3.63;2.05;;;;;;;;;;5041061;28;20057;-82
2023/03/20 05:08:26;;;;;;;2.67;1.92;;;;;;;;;;5039936;28;20025;-82
2023/03/20 05:10:52;;;;;;;3.67;1.80;;;;;;;;;;5038116;28;20033;-82
2023/03/20 05:13:17;;;;;;;2.33;1.23;;;;;;;;;;5040194;28;20087;-81
2023/03/20 05:15:43;;;;;;;1.48;1.20;;;;;;;;;;5035989;28;20052;-81
2023/03/20 05:18:08;;;;;;;3.83;1.65;;;;;;;;;;5037468;28;20040;-81
2023/03/20 05:20:35;;;;;;;3.42;2.13;;;;;;;;;;5036947;28;20096;-82
2023/03/20 05:23:01;;;;;;;2.13;1.73;;;;;;;;;;5038354;28;20060;-80
2023/03/20 05:25:26;;;;;;;3.85;1.95;;;;;;;;;;5040754;28;20057;-80
2023/03/20 05:27:52;;;;;;;3.70;2.25;;;;;;;;;;5040461;28;20068;-81
2023/03/20 05:30:18;;;;;;;5.53;3.42;;;;;;;;;;5041082;28;20033;-82
2023/03/20 05:32:44;;;;;;;8.25;3.63;;;;;;;;;;5036868;28;20052;-83
2023/03/20 05:35:09;;;;;;;4.88;2.95;;;;;;;;;;5035593;28;20433;-80
2023/03/20 05:37:35;;;;;;;4.93;3.25;;;;;;;;;;5036344;28;20061;-82
2023/03/20 05:40:02;;;;;;;4.63;2.13;;;;;;;;;;5036147;28;20036;-81
2023/03/20 05:42:27;;;;;;;9.05;2.63;;;;;;;;;;5039131;28;20028;-81
2023/03/20 05:44:52;;;;;;;5.15;2.63;;;;;;;;;;5036400;28;20029;-81
2023/03/20 05:47:18;;;;;;;9.30;3.75;;;;;;;;;;5040297;28;20025;-81
2023/03/20 05:49:43;;;;;;;5.35;2.67;;;;;;;;;;5041701;28;20382;-81
2023/03/20 05:52:08;;;;;;;5.68;3.55;;;;;;;;;;5044527;28;20468;-83
2023/03/20 05:54:34;;;;;;;4.88;2.20;;;;;;;;;;5038310;28;20029;-80
2023/03/20 05:57:00;;;;;;;5.03;3.15;;;;;;;;;;5043601;28;20041;-79
2023/03/20 05:59:25;;;;;;;5.30;3.00;;;;;;;;;;5040873;28;20029;-80
2023/03/20 06:01:51;;;;;;;3.53;2.90;;;;;;;;;;5044865;28;20049;-80
2023/03/20 06:04:16;;;;;;;5.95;3.95;;;;;;;;;;5043039;28;20079;-79
2023/03/20 06:06:42;;;;;;;3.90;3.28;;;;;;;;;;5036051;28;20389;-83
2023/03/20 06:09:07;;;;;;;4.55;2.33;;;;;;;;;;5035886;28;20025;-80
2023/03/20 06:11:32;;;;;;;9.63;3.42;;;;;;;;;;5033131;28;20029;-81
2023/03/20 06:13:58;;;;;;;7.32;4.28;;;;;;;;;;5040672;28;20064;-80
2023/03/20 06:16:24;;;;;;;5.30;3.92;;;;;;;;;;5033935;28;20043;-80
2023/03/20 06:18:49;;;;;;;7.35;3.78;;;;;;;;;;5036013;28;20052;-81
2023/03/20 06:21:15;;;;;;;7.15;3.42;;;;;;;;;;5039799;28;20478;-80
2023/03/20 06:23:40;;;;;;;7.00;3.50;;;;;;;;;;5035487;28;20078;-80
2023/03/20 06:26:06;;;;;;;5.70;2.67;;;;;;;;;;5036577;28;20382;-81
2023/03/20 06:28:31;;;;;;;3.15;2.20;;;;;;;;;;5041647;28;20033;-81
2023/03/20 06:30:57;;;;;;;5.78;3.40;;;;;;;;;;5034452;28;20033;-81
2023/03/20 06:33:23;;;;;;;7.20;4.03;;;;;;;;;;5032382;28;20029;-80
2023/03/20 06:35:49;;;;;;;6.70;3.22;;;;;;;;;;5036464;28;20060;-80
2023/03/20 06:38:14;;;;;;;5.70;3.28;;;;;;;;;;5041645;28;20029;-82
2023/03/20 06:40:40;;;;;;;6.57;4.18;;;;;;;;;;5041285;28;20028;-82
2023/03/20 06:43:06;;;;;;;8.48;3.10;;;;;;;;;;5039186;28;20424;-82
2023/03/20 06:45:31;;;;;;;7.18;4.10;;;;;;;;;;5040748;28;20087;-83
2023/03/20 06:47:57;;;;;;;5.05;3.83;;;;;;;;;;5043518;28;20029;-82
2023/03/20 06:50:24;;;;;;;9.45;5.43;;;;;;;;;;5036828;28;20037;-83
2023/03/20 06:52:50;;;;;;;5.65;3.40;;;;;;;;;;5042588;28;20350;-81
2023/03/20 06:55:15;;;;;;;12.82;3.50;;;;;;;;;;5035406;28;20029;-83
2023/03/20 06:57:41;;;;;;;5.47;3.33;;;;;;;;;;5045349;28;20021;-82
2023/03/20 07:00:09;;;;;;;6.97;3.47;;;;;;;;;;5043278;28;20515;-82
2023/03/20 07:02:34;;;;;;;8.70;3.50;;;;;;;;;;5021287;28;20093;-82
2023/03/20 07:05:00;;;;;;;7.25;3.60;;;;;;;;;;5030816;28;20030;-82
2023/03/20 07:07:26;;;;;;;5.55;3.17;;;;;;;;;;5041176;28;20476;-82
2023/03/20 07:09:51;;;;;;;8.57;4.40;;;;;;;;;;5047370;28;20394;-82
2023/03/20 07:12:18;;;;;;;9.65;5.88;;;;;;;;;;5040929;28;20435;-82
2023/03/20 07:14:44;;;;;;;7.32;4.53;;;;;;;;;;5042198;28;20016;-81
2023/03/20 07:17:11;;;;;;;8.65;4.78;;;;;;;;;;5039075;28;20040;-81
2023/03/20 07:19:36;;;;;;;4.68;3.28;;;;;;;;;;5034883;28;20426;-82
2023/03/20 07:22:05;;;;;;;6.70;3.78;;;;;;;;;;5038436;28;20108;-84
2023/03/20 07:24:31;;;;;;;4.78;3.30;;;;;;;;;;5040300;28;20388;-81
2023/03/20 07:26:57;;;;;;;10.30;3.45;;;;;;;;;;5037256;28;20493;-82
2023/03/20 07:29:22;;;;;;;7.97;3.50;;;;;;;;;;5036599;28;20135;-81
2023/03/20 07:31:48;;;;;;;8.07;3.53;;;;;;;;;;5039764;28;20087;-81
2023/03/20 07:34:13;;;;;;;4.97;3.40;;;;;;;;;;5035872;28;20524;-80
2023/03/20 07:36:40;;;;;;;7.10;3.17;;;;;;;;;;5035991;28;20347;-81
2023/03/20 07:39:07;;;;;;;8.93;4.28;;;;;;;;;;5033264;28;20030;-79
2023/03/20 07:41:32;;;;;;;9.05;3.05;;;;;;;;;;5033212;28;20033;-80
2023/03/20 07:43:58;;;;;;;12.68;4.35;;;;;;;;;;5031869;28;20033;-80
2023/03/20 07:46:24;;;;;;;5.43;3.30;;;;;;;;;;5030087;28;20534;-81
2023/03/20 07:48:50;;;;;;;5.22;2.83;;;;;;;;;;5049123;28;20473;-81
2023/03/20 07:51:15;;;;;;;3.90;2.72;;;;;;;;;;5041423;28;20047;-81
2023/03/20 07:53:41;;;;;;;4.32;2.83;;;;;;;;;;5041550;28;20500;-81
2023/03/20 07:56:07;;;;;;;6.50;3.47;;;;;;;;;;5041572;28;20082;-80
2023/03/20 07:58:41;;;;;;;28.60;15.68;;;;;;;;;;5037341;28;20037;-80
2023/03/20 08:01:06;;;;;;;13.55;7.40;;;;;;;;;;5036818;28;20493;-81
2023/03/20 08:03:32;;;;;;;10.75;7.53;;;;;;;;;;5038132;28;20037;-81
2023/03/20 08:05:58;;;;;;;7.05;3.20;;;;;;;;;;5035301;28;20401;-80
2023/03/20 08:08:24;;;;;;;7.35;3.65;;;;;;;;;;5037972;28;20393;-80
2023/03/20 08:10:49;;;;;;;7.25;3.20;;;;;;;;;;5041159;28;20032;-80
2023/03/20 08:13:15;;;;;;;5.15;3.20;;;;;;;;;;5033189;28;20032;-81
2023/03/20 08:15:40;;;;;;;3.85;2.40;;;;;;;;;;5026266;28;20628;-80
2023/03/20 08:18:06;;;;;;;5.88;3.13;;;;;;;;;;5022578;28;20061;-81
2023/03/20 08:20:31;;;;;;;5.72;2.97;;;;;;;;;;5044959;28;20051;-79
2023/03/20 08:22:56;;;;;;;3.28;2.17;;;;;;;;;;5028732;28;20037;-80
2023/03/20 08:25:22;;;;;;;4.70;2.75;;;;;;;;;;5032333;28;20025;-79
2023/03/20 08:27:48;;;;;;;9.88;3.88;;;;;;;;;;5037037;28;20377;-80
2023/03/20 08:30:14;;;;;;;10.32;3.10;;;;;;;;;;5035341;28;20029;-79
2023/03/20 08:32:40;;;;;;;5.28;3.15;;;;;;;;;;5042355;28;20056;-79
2023/03/20 08:35:07;;;;;;;8.48;3.70;;;;;;;;;;5035593;28;20024;-79
2023/03/20 08:37:33;;;;;;;3.45;2.72;;;;;;;;;;5045056;28;20091;-81
2023/03/20 08:39:59;;;;;;;7.28;3.40;;;;;;;;;;5031381;28;20474;-80
2023/03/20 08:42:24;;;;;;;5.25;3.05;;;;;;;;;;5037568;28;20446;-81
2023/03/20 08:44:50;;;;;;;9.82;3.03;;;;;;;;;;5038691;28;20030;-80
2023/03/20 08:47:15;;;;;;;8.25;3.85;;;;;;;;;;5036727;28;20043;-80
2023/03/20 08:49:42;;;;;;;9.90;3.15;;;;;;;;;;5039745;28;20025;-85
2023/03/20 08:52:07;;;;;;;5.22;3.28;;;;;;;;;;5036689;28;20526;-86
2023/03/20 08:54:33;;;;;;;8.40;3.13;;;;;;;;;;5038456;28;20030;-82
2023/03/20 08:56:58;;;;;;;5.13;3.10;;;;;;;;;;5029660;28;20025;-84
2023/03/20 08:59:24;;;;;;;4.00;2.97;;;;;;;;;;5031494;28;20099;-82
2023/03/20 09:01:49;;;;;;;8.25;3.35;;;;;;;;;;5031112;28;20064;-81
2023/03/20 09:04:15;;;;;;;4.63;3.17;;;;;;;;;;5029677;28;20037;-81
2023/03/20 09:06:40;;;;;;;6.03;3.92;;;;;;;;;;5044605;28;20029;-82
2023/03/20 09:09:06;;;;;;;5.88;3.30;;;;;;;;;;5028560;28;20033;-83
2023/03/20 09:11:33;;;;;;;7.05;3.50;;;;;;;;;;5041419;28;20025;-83
2023/03/20 09:13:59;;;;;;;5.15;3.22;;;;;;;;;;5032976;28;20025;-82
2023/03/20 09:16:25;;;;;;;5.00;3.38;;;;;;;;;;5035227;28;20598;-81
2023/03/20 09:18:51;;;;;;;6.25;3.42;;;;;;;;;;5043770;28;20083;-81
2023/03/20 09:21:16;;;;;;;4.18;2.70;;;;;;;;;;5036431;28;20037;-84
2023/03/20 09:23:42;;;;;;;6.43;3.35;;;;;;;;;;5034401;28;20471;-81
2023/03/20 09:26:07;;;;;;;5.78;3.25;;;;;;;;;;5033938;28;20030;-82
2023/03/20 09:28:32;;;;;;;7.60;3.30;;;;;;;;;;5036608;28;20025;-81
2023/03/20 09:30:59;;;;;;;11.15;4.28;;;;;;;;;;5052056;28;20029;-81
2023/03/20 09:33:25;;;;;;;7.38;4.20;;;;;;;;;;5043762;28;20254;-83
2023/03/20 09:35:50;;;;;;;5.35;3.38;;;;;;;;;;5044511;28;20521;-81
2023/03/20 09:38:16;;;;;;;6.82;3.60;;;;;;;;;;5039472;28;20025;-81
2023/03/20 09:40:54;;;;;;;4.95;2.97;;;;;;;;;;5035546;28;20021;-83
2023/03/20 09:43:32;;;;;;;10.55;3.55;;;;;;;;;;5038547;28;20037;-82
2023/03/20 09:46:19;;;;;;;6.72;3.55;;;;;;;;;;5038198;28;20022;-82
2023/03/20 09:48:58;;;;;;;4.70;2.45;;;;;;;;;;5037677;28;20280;-82
2023/03/20 09:51:35;;;;;;;7.32;3.65;;;;;;;;;;5041386;28;20025;-82
2023/03/20 09:54:10;;;;;;;5.90;3.67;;;;;;;;;;5044226;28;20420;-82
2023/03/20 09:56:36;;;;;;;4.32;2.67;;;;;;;;;;5036672;28;21575;-82
2023/03/20 09:59:05;;;;;;;4.93;3.55;;;;;;;;;;5038546;28;20038;-81
2023/03/20 10:01:42;;;;;;;4.53;2.85;;;;;;;;;;5038785;28;20191;-82
2023/03/20 10:04:09;;;;;;;8.05;3.92;;;;;;;;;;5034060;28;20428;-83
2023/03/20 10:06:35;;;;;;;7.00;3.78;;;;;;;;;;5035479;28;20071;-81
2023/03/20 10:09:05;;;;;;;5.63;3.45;;;;;;;;;;5034972;28;20504;-82
2023/03/20 10:11:37;;;;;;;6.28;3.63;;;;;;;;;;5034259;28;20466;-81
2023/03/20 10:14:34;;;;;;;9.68;3.40;;;;;;;;;;5039935;28;20075;-81
2023/03/20 10:17:10;;;;;;;6.10;3.40;;;;;;;;;;5039951;28;20029;-81
2023/03/20 10:19:50;;;;;;;9.13;4.57;;;;;;;;;;5036510;28;20065;-81
2023/03/20 10:22:28;;;;;;;6.28;3.95;;;;;;;;;;5031384;28;20458;-80
2023/03/20 10:25:10;;;;;;;3.92;3.03;;;;;;;;;;5035725;28;20025;-80
2023/03/20 10:27:55;;;;;;;7.57;3.55;;;;;;;;;;5061610;28;20040;-81
2023/03/20 10:30:20;;;;;;;6.30;3.85;;;;;;;;;;5036637;28;20112;-83
2023/03/20 10:33:11;;;;;;;5.00;3.35;;;;;;;;;;5040026;28;20061;-86
2023/03/20 10:35:48;;;;;;;6.15;4.07;;;;;;;;;;5040287;28;20029;-84
2023/03/20 10:38:30;;;;;;;8.05;4.45;;;;;;;;;;5035487;28;20041;-80
2023/03/20 10:40:57;;;;;;;5.97;3.60;;;;;;;;;;5077024;28;20021;-80
2023/03/20 10:43:29;;;;;;;6.55;3.80;;;;;;;;;;5031587;28;20021;-80
2023/03/20 10:46:12;;;;;;;10.98;5.25;;;;;;;;;;5040214;28;20485;-80
2023/03/20 10:48:40;;;;;;;10.95;4.13;;;;;;;;;;5035749;28;20052;-80
2023/03/20 10:51:13;;;;;;;8.40;4.43;;;;;;;;;;5033599;28;20032;-81
2023/03/20 10:53:52;;;;;;;7.80;3.75;;;;;;;;;;5033274;28;20018;-80
2023/03/20 10:56:43;;;;;;;8.63;4.63;;;;;;;;;;5039436;28;20028;-80
2023/03/20 10:59:23;;;;;;;9.23;3.88;;;;;;;;;;5044211;28;20037;-81
2023/03/20 11:01:49;;;;;;;11.20;4.47;;;;;;;;;;5032856;28;20123;-80
2023/03/20 11:04:14;;;;;;;10.85;4.30;;;;;;;;;;5036687;28;20033;-81
2023/03/20 11:07:06;;;;;;;9.98;4.38;;;;;;;;;;5038535;28;20029;-82
2023/03/20 11:09:31;;;;;;;9.57;3.58;;;;;;;;;;5036828;28;20512;-82
2023/03/20 11:12:00;;;;;;;10.95;5.15;;;;;;;;;;5037016;28;20029;-82
2023/03/20 11:14:32;;;;;;;6.18;3.92;;;;;;;;;;5035615;28;20037;-82
2023/03/20 11:17:00;;;;;;;7.68;4.25;;;;;;;;;;5033394;28;20029;-83
2023/03/20 11:19:26;;;;;;;9.15;4.25;;;;;;;;;;5034497;28;20061;-81
2023/03/20 11:21:56;;;;;;;8.68;4.32;;;;;;;;;;5037391;28;20516;-81
2023/03/20 11:24:34;;;;;;;7.43;3.80;;;;;;;;;;5032207;28;20033;-81
2023/03/20 11:27:18;;;;;;;7.97;4.25;;;;;;;;;;5033774;28;20072;-81
2023/03/20 11:29:50;;;;;;;6.88;3.85;;;;;;;;;;5055340;28;20025;-80
2023/03/20 11:32:27;;;;;;;5.72;3.75;;;;;;;;;;5043933;28;20830;-81
2023/03/20 11:34:56;;;;;;;7.10;4.45;;;;;;;;;;5032054;28;20489;-82
2023/03/20 11:37:33;;;;;;;5.40;3.70;;;;;;;;;;5038826;28;20067;-81
2023/03/20 11:40:13;;;;;;;8.07;3.85;;;;;;;;;;5033267;28;20298;-81
2023/03/20 11:42:38;;;;;;;;;;;;;;;;;;5054204;28;20372;-81
2023/03/20 11:45:16;;;;;;;5.57;3.42;;;;;;;;;;5037934;28;19920;-80
2023/03/20 11:47:47;;;;;;;5.13;3.70;;;;;;;;;;5042094;28;20448;-81
2023/03/20 11:50:36;;;;;;;14.95;4.85;;;;;;;;;;5037533;28;20025;-80
2023/03/20 11:53:28;;;;;;;7.13;3.92;;;;;;;;;;5037934;28;20063;-80
2023/03/20 11:56:06;;;;;;;6.53;3.88;;;;;;;;;;5028111;28;20038;-81
2023/03/20 11:58:34;;;;;;;7.75;3.28;;;;;;;;;;5033596;28;20037;-81
2023/03/20 12:01:01;;;;;;;6.20;3.55;;;;;;;;;;5056997;28;20055;-81
2023/03/20 12:03:40;;;;;;;10.45;4.57;;;;;;;;;;5039228;28;20025;-81
2023/03/20 12:06:08;;;;;;;6.33;3.27;;;;;;;;;;5036386;28;20052;-81
2023/03/20 12:08:38;;;;;;;6.30;3.80;;;;;;;;;;5039928;28;20154;-82
2023/03/20 12:11:42;;;;;;;4.17;3.20;;;;;;;;;;5038180;28;20039;-82
2023/03/20 12:14:30;;;;;;;6.88;3.40;;;;;;;;;;5036941;28;20029;-81
2023/03/20 12:17:10;;;;;;;5.15;3.47;;;;;;;;;;5043276;28;20107;-81
2023/03/20 12:19:37;;;;;;;;;;;;;;;;;;5041929;28;20041;-82
2023/03/20 12:22:11;;;;;;;6.00;3.47;;;;;;;;;;5041721;28;20541;-81
2023/03/20 12:24:43;;;;;;;4.68;3.67;;;;;;;;;;5037022;28;20040;-82
2023/03/20 12:27:28;;;;;;;7.10;3.55;;;;;;;;;;5036801;28;20075;-82
2023/03/20 12:30:08;;;;;;;8.13;3.78;;;;;;;;;;5033437;28;20036;-81
2023/03/20 12:32:47;;;;;;;6.40;3.90;;;;;;;;;;5035032;28;20035;-82
2023/03/20 12:35:18;;;;;;;5.47;3.45;;;;;;;;;;5036696;28;20096;-82
2023/03/20 12:37:44;;;;;;;9.38;3.33;;;;;;;;;;5043158;28;20033;-82
2023/03/20 12:40:16;;;;;;;5.13;3.45;;;;;;;;;;5039224;28;20048;-83
2023/03/20 12:42:53;;;;;;;8.90;3.10;;;;;;;;;;5035927;28;20028;-83
2023/03/20 12:45:22;;;;;;;6.47;4.13;;;;;;;;;;5033149;28;20453;-82
2023/03/20 12:48:31;;;;;;;6.68;4.07;;;;;;;;;;5037167;28;20101;-82
2023/03/20 12:51:06;;;;;;;5.30;3.53;;;;;;;;;;5046132;28;20672;-83
2023/03/20 12:53:49;;;;;;;8.50;4.75;;;;;;;;;;5046061;28;20056;-83
2023/03/20 12:56:25;;;;;;;7.03;3.63;;;;;;;;;;5048519;28;20071;-80
2023/03/20 12:59:02;;;;;;;6.65;4.57;;;;;;;;;;5043001;28;20108;-82
2023/03/20 13:01:46;;;;;;;7.28;3.85;;;;;;;;;;5044052;28;20489;-81
2023/03/20 13:04:34;;;;;;;8.02;3.85;;;;;;;;;;5040692;28;20523;-82
2023/03/20 13:07:15;;;;;;;10.13;4.30;;;;;;;;;;5039232;28;20548;-82
2023/03/20 13:10:07;;;;;;;5.18;3.47;;;;;;;;;;5041059;28;20491;-82
2023/03/20 13:12:56;;;;;;;6.65;3.88;;;;;;;;;;5043115;28;20025;-82
2023/03/20 13:15:53;;;;;;;4.57;2.65;;;;;;;;;;5047721;28;20022;-82
2023/03/20 13:18:47;;;;;;;8.30;4.15;;;;;;;;;;5039232;28;20025;-82
2023/03/20 13:21:18;;;;;;;6.43;3.17;;;;;;;;;;5042363;28;20037;-82
2023/03/20 13:23:55;;;;;;;6.20;3.38;;;;;;;;;;5043823;28;20113;-83
2023/03/20 13:26:40;;;;;;;5.05;3.10;;;;;;;;;;5037037;28;20026;-82
2023/03/20 13:29:05;;;;;;;7.20;4.13;;;;;;;;;;5036510;28;20020;-82
2023/03/20 13:31:49;;;;;;;4.53;2.95;;;;;;;;;;5040175;28;20133;-82
2023/03/20 13:34:52;;;;;;;5.80;3.72;;;;;;;;;;5042490;28;20052;-81
2023/03/20 13:37:24;;;;;;;4.93;3.17;;;;;;;;;;5044991;28;20037;-81
2023/03/20 13:40:10;;;;;;;5.20;3.03;;;;;;;;;;5041130;28;20041;-83
2023/03/20 13:42:58;;;;;;;5.78;3.10;;;;;;;;;;5045278;28;20029;-84
2023/03/20 13:45:32;;;;;;;5.07;2.75;;;;;;;;;;5043653;28;20029;-83
2023/03/20 13:48:08;;;;;;;7.88;3.40;;;;;;;;;;5036592;28;20028;-81
2023/03/20 13:50:47;;;;;;;4.25;3.22;;;;;;;;;;5038160;28;20532;-80
2023/03/20 13:53:18;;;;;;;5.00;3.10;;;;;;;;;;5046166;28;20405;-82
2023/03/20 13:56:02;;;;;;;6.07;3.10;;;;;;;;;;5028809;28;20793;-81
2023/03/20 13:58:36;;;;;;;4.65;3.10;;;;;;;;;;5040959;28;20075;-81
2023/03/20 14:01:15;;;;;;;5.03;3.30;;;;;;;;;;5032688;28;20489;-81
2023/03/20 14:03:44;;;;;;;5.15;2.80;;;;;;;;;;5035196;28;20028;-81
2023/03/20 14:06:22;;;;;;;5.95;3.40;;;;;;;;;;5036105;28;20083;-81
2023/03/20 14:08:52;;;;;;;4.40;2.65;;;;;;;;;;5043836;28;20060;-81
2023/03/20 14:11:34;;;;;;;6.85;3.35;;;;;;;;;;5033977;28;20067;-82
2023/03/20 14:14:18;;;;;;;5.15;2.95;;;;;;;;;;5029494;28;20084;-80
2023/03/20 14:16:44;;;;;;;4.85;2.67;;;;;;;;;;5035476;28;20036;-82
2023/03/20 14:19:19;;;;;;;4.95;2.60;;;;;;;;;;5034032;28;20108;-82
2023/03/20 14:21:52;;;;;;;8.55;2.88;;;;;;;;;;5034118;28;20025;-82
2023/03/20 14:24:19;;;;;;;4.80;2.60;;;;;;;;;;5035473;28;20466;-83
2023/03/20 14:26:51;;;;;;;4.57;2.55;;;;;;;;;;5034125;28;20166;-82
2023/03/20 14:29:16;;;;;;;3.85;2.85;;;;;;;;;;5034617;28;20021;-82
2023/03/20 14:31:44;;;;;;;4.82;2.90;;;;;;;;;;5042466;28;20033;-82
2023/03/20 14:34:24;;;;;;;5.32;3.00;;;;;;;;;;5032385;28;20362;-82
2023/03/20 14:36:58;;;;;;;3.95;2.80;;;;;;;;;;5035437;28;20183;-81
2023/03/20 14:39:42;;;;;;;3.92;2.72;;;;;;;;;;5030934;28;20025;-81
2023/03/20 14:42:23;;;;;;;5.22;3.00;;;;;;;;;;5031201;28;20030;-81
2023/03/20 14:45:15;;;;;;;3.45;2.33;;;;;;;;;;5030849;28;20442;-81
2023/03/20 14:47:40;;;;;;;5.32;2.92;;;;;;;;;;5042650;28;20017;-80
2023/03/20 14:50:13;;;;;;;6.50;2.60;;;;;;;;;;5035080;28;20033;-82
2023/03/20 14:52:47;;;;;;;4.72;2.40;;;;;;;;;;5030592;28;20041;-82
2023/03/20 14:55:27;;;;;;;4.28;2.38;;;;;;;;;;5037847;28;20045;-82
2023/03/20 14:57:54;;;;;;;4.60;2.63;;;;;;;;;;5036762;28;20392;-80
2023/03/20 15:00:22;;;;;;;2.30;1.95;;;;;;;;;;5037829;28;20032;-80
2023/03/20 15:02:51;;;;;;;2.83;1.80;;;;;;;;;;5035517;28;20133;-80
2023/03/20 15:05:30;;;;;;;4.85;2.85;;;;;;;;;;5032320;28;20489;-81
2023/03/20 15:08:01;;;;;;;4.55;2.13;;;;;;;;;;5036814;28;20037;-81
2023/03/20 15:10:27;;;;;;;4.00;2.22;;;;;;;;;;5042082;28;20047;-81